• Join FlightAware (Why Join?)
  • Login
  • US Flag 
09:16AM EDT


 

Airport Tracker/Info


-or-


 

Live Flight TrackerFlight Track Log ✈ GGN7280 ✈ 18-May-2013 ✈ CYYZ - KALB

Flight Track Log - Related Links

Times and Time Zones

All times are in EDT time to prevent confusion due to time zone crossing. See the GGN7280 flight status page for this flight to view local times or setup timezone preferences in your user account.

Time Position Orientation Groundspeed Altitude Reporting Facility
EDT Latitude Longitude Course Direction KTS MPH feet Rate Location/Type
09:38AM 43.6500 -79.6167 55° Northeast 20 23 500  Level Toronto Center
09:39AM 43.6667 -79.5833 55° Northeast 140 161 1,300 1,320 Climbing Toronto Center
09:40AM 43.6667 -79.5167 90° East 160 184 3,200 1,740 Climbing Toronto Center
09:41AM 43.6500 -79.4667 115° Southeast 160 184 4,800 900 Climbing Toronto Center
09:42AM 43.6167 -79.4000 125° Southeast 200 230 5,000 180 Climbing Toronto Center
09:43AM 43.5833 -79.3167 119° Southeast 230 265 5,200 900 Climbing Toronto Center
09:44AM 43.5500 -79.2500 125° Southeast 220 253 6,800 1,440 Climbing Toronto Center
09:45AM 43.5333 -79.1667 105° East 210 242 8,100 1,080 Climbing Toronto Center
09:46AM 43.5000 -79.1000 125° Southeast 230 265 9,000 420 Climbing Toronto Center
09:47AM 43.4667 -79.0167 119° Southeast 250 288 9,000  Level Toronto Center
09:48AM 43.4333 -78.9167 115° Southeast 270 311 9,000  Level Toronto Center
09:49AM 43.3833 -78.8333 130° Southeast 260 299 9,000  Level Toronto Center
09:50AM 43.3167 -78.8333 180° South 260 299 9,000  Level Toronto Center
09:51AM 43.2833 -78.7333 115° Southeast 260 299 9,000  Level Toronto Center
09:52AM 43.2500 -78.6500 119° Southeast 260 299 9,000  Level Toronto Center
09:53AM 43.2500 -78.5500 90° East 260 299 9,000  Level Toronto Center
09:54AM 43.2333 -78.4500 103° East 260 299 9,000  Level Toronto Center
09:55AM 43.2317 -78.3978 92° East 256 295 9,000  Level Cleveland Center
09:56AM 43.2150 -78.3014 103° East 256 295 9,000  Level Cleveland Center
09:57AM 43.2008 -78.2081 102° East 256 295 9,000  Level Cleveland Center
09:58AM 43.1861 -78.1089 101° East 257 296 9,000  Level Cleveland Center
09:59AM 43.1694 -78.0100 103° East 255 293 9,000  Level Cleveland Center
10:00AM 43.1528 -77.9167 104° East 259 298 9,000  Level Cleveland Center
10:01AM 43.1381 -77.8206 102° East 258 297 9,000  Level Cleveland Center
10:02AM 43.1253 -77.7272 101° East 257 296 9,000  Level Cleveland Center
10:03AM 43.0978 -77.6289 111° Southeast 285 328 9,000  Level Cleveland Center
10:04AM 43.0603 -77.5456 122° Southeast 253 291 9,000  Level Cleveland Center
10:05AM 43.0225 -77.4622 122° Southeast 259 298 9,000  Level Cleveland Center
10:06AM 42.9889 -77.3758 118° Southeast 259 298 9,000  Level Cleveland Center
10:07AM 42.9511 -77.2928 122° Southeast 259 298 9,000  Level Cleveland Center
10:08AM 42.9153 -77.2094 120° Southeast 259 298 9,000  Level Cleveland Center
10:09AM 42.8856 -77.1203 114° Southeast 255 293 9,000  Level Cleveland Center
10:11AM 42.8833 -76.8833 91° East 260 299 9,000  Level Toronto Center
10:12AM 42.8833 -76.7833 90° East 260 299 9,000  Level Toronto Center
10:13AM 42.8808 -76.7703 105° East 263 303 9,000  Level Boston Center
10:14AM 42.8783 -76.6708 92° East 261 300 9,000  Level Boston Center
10:15AM 42.8756 -76.5772 92° East 263 303 9,000  Level Boston Center
10:16AM 42.8725 -76.4833 93° East 263 303 9,000  Level Boston Center
10:17AM 42.8697 -76.3842 92° East 264 304 9,000  Level Boston Center
10:18AM 42.8650 -76.2817 94° East 264 304 9,000  Level Boston Center
10:19AM 42.8603 -76.1681 93° East 265 305 9,000  Level Boston Center
10:20AM 42.8594 -76.0689 91° East 264 304 9,000  Level Boston Center
10:21AM 42.8544 -75.9664 94° East 266 306 9,000  Level Boston Center
10:22AM 42.8492 -75.8614 94° East 266 306 9,000 -60 Level Boston Center
10:23AM 42.8461 -75.7508 92° East 264 304 8,900  Descending Boston Center
10:24AM 42.8408 -75.6514 94° East 268 308 9,000  Climbing Boston Center
10:25AM 42.8372 -75.5492 93° East 269 310 9,000 -60 Level Boston Center
10:26AM 42.8317 -75.4469 94° East 268 308 8,900 -60 Descending Boston Center
10:27AM 42.8283 -75.3364 92° East 268 308 8,900  Level Boston Center
10:28AM 42.8208 -75.2228 95° East 269 310 8,900  Level Boston Center
10:29AM 42.8169 -75.1206 93° East 272 313 8,900  Level Boston Center
10:30AM 42.8131 -75.0186 93° East 270 311 8,900  Level Boston Center
10:31AM 42.8069 -74.9164 95° East 270 311 8,900 -180 Level Boston Center
10:32AM 42.8028 -74.8144 93° East 271 312 8,600 -600 Descending Boston Center
10:33AM 42.7981 -74.7492 96° East 275 316 8,000 -1,020 Descending Boston Center
10:34AM 42.7917 -74.6442 95° East 277 319 7,000 -1,080 Descending Boston Center
10:35AM 42.7894 -74.5508 92° East 251 289 5,900 -1,080 Descending Boston Center
10:36AM 42.7844 -74.4686 95° East 230 265 5,000 -480 Descending Boston Center
10:37AM 42.7800 -74.3722 94° East 221 254 5,000  Level Boston Center
10:38AM 42.7625 -74.2925 107° East 221 254 5,000 -120 Level Boston Center
10:39AM 42.7325 -74.2208 120° Southeast 233 268 4,800 -360 Descending Boston Center
10:40AM 42.7003 -74.1408 119° Southeast 221 254 4,300 -480 Descending Boston Center